sensor_id;sensor_type;location;lat;lon;timestamp;P1;durP1;ratioP1;P2;durP2;ratioP2
11141;SDS011;5625;50.122;19.864;2023-04-03T00:01:19;4.27;;;3.87;;
11141;SDS011;5625;50.122;19.864;2023-04-03T00:03:47;4.20;;;3.90;;
11141;SDS011;5625;50.122;19.864;2023-04-03T00:06:16;4.70;;;4.30;;
11141;SDS011;5625;50.122;19.864;2023-04-03T00:08:44;5.10;;;4.70;;
11141;SDS011;5625;50.122;19.864;2023-04-03T00:11:12;5.17;;;4.67;;
11141;SDS011;5625;50.122;19.864;2023-04-03T00:13:41;4.97;;;4.57;;
11141;SDS011;5625;50.122;19.864;2023-04-03T00:16:09;5.00;;;4.50;;
11141;SDS011;5625;50.122;19.864;2023-04-03T00:18:40;4.87;;;4.57;;
11141;SDS011;5625;50.122;19.864;2023-04-03T00:21:09;5.27;;;4.83;;
11141;SDS011;5625;50.122;19.864;2023-04-03T00:23:39;5.07;;;4.67;;
11141;SDS011;5625;50.122;19.864;2023-04-03T00:26:07;5.53;;;5.00;;
11141;SDS011;5625;50.122;19.864;2023-04-03T00:28:35;5.27;;;4.77;;
11141;SDS011;5625;50.122;19.864;2023-04-03T00:31:03;5.10;;;4.70;;
11141;SDS011;5625;50.122;19.864;2023-04-03T00:33:33;4.80;;;4.40;;
11141;SDS011;5625;50.122;19.864;2023-04-03T00:36:06;5.03;;;4.63;;
11141;SDS011;5625;50.122;19.864;2023-04-03T00:38:35;4.57;;;4.17;;
11141;SDS011;5625;50.122;19.864;2023-04-03T00:41:03;4.70;;;4.30;;
11141;SDS011;5625;50.122;19.864;2023-04-03T00:43:32;5.27;;;4.80;;
11141;SDS011;5625;50.122;19.864;2023-04-03T00:46:00;4.87;;;4.37;;
11141;SDS011;5625;50.122;19.864;2023-04-03T00:48:29;6.00;;;5.47;;
11141;SDS011;5625;50.122;19.864;2023-04-03T00:50:59;9.43;;;6.63;;
11141;SDS011;5625;50.122;19.864;2023-04-03T00:53:31;6.03;;;5.20;;
11141;SDS011;5625;50.122;19.864;2023-04-03T00:56:01;4.50;;;4.10;;
11141;SDS011;5625;50.122;19.864;2023-04-03T00:58:33;3.97;;;3.57;;
11141;SDS011;5625;50.122;19.864;2023-04-03T01:01:07;5.63;;;5.10;;
11141;SDS011;5625;50.122;19.864;2023-04-03T01:03:39;4.57;;;4.10;;
11141;SDS011;5625;50.122;19.864;2023-04-03T01:06:08;3.70;;;3.40;;
11141;SDS011;5625;50.122;19.864;2023-04-03T01:08:37;3.87;;;3.57;;
11141;SDS011;5625;50.122;19.864;2023-04-03T01:11:06;3.93;;;3.63;;
11141;SDS011;5625;50.122;19.864;2023-04-03T01:13:34;3.43;;;3.13;;
11141;SDS011;5625;50.122;19.864;2023-04-03T01:16:02;3.30;;;3.10;;
11141;SDS011;5625;50.122;19.864;2023-04-03T01:18:32;3.20;;;3.00;;
11141;SDS011;5625;50.122;19.864;2023-04-03T01:21:12;4.10;;;3.80;;
11141;SDS011;5625;50.122;19.864;2023-04-03T01:24:19;4.77;;;4.30;;
11141;SDS011;5625;50.122;19.864;2023-04-03T01:26:54;5.60;;;5.03;;
11141;SDS011;5625;50.122;19.864;2023-04-03T01:29:23;4.80;;;4.40;;
11141;SDS011;5625;50.122;19.864;2023-04-03T01:31:53;4.73;;;4.33;;
11141;SDS011;5625;50.122;19.864;2023-04-03T01:34:22;5.40;;;4.47;;
11141;SDS011;5625;50.122;19.864;2023-04-03T01:36:50;4.43;;;3.70;;
11141;SDS011;5625;50.122;19.864;2023-04-03T01:39:19;4.70;;;3.83;;
11141;SDS011;5625;50.122;19.864;2023-04-03T01:41:48;4.57;;;3.83;;
11141;SDS011;5625;50.122;19.864;2023-04-03T01:44:16;3.60;;;3.30;;
11141;SDS011;5625;50.122;19.864;2023-04-03T01:46:44;3.73;;;3.40;;
11141;SDS011;5625;50.122;19.864;2023-04-03T01:49:14;3.43;;;3.13;;
11141;SDS011;5625;50.122;19.864;2023-04-03T01:51:42;3.70;;;3.40;;
11141;SDS011;5625;50.122;19.864;2023-04-03T01:54:10;4.03;;;3.63;;
11141;SDS011;5625;50.122;19.864;2023-04-03T01:56:38;3.93;;;3.63;;
11141;SDS011;5625;50.122;19.864;2023-04-03T01:59:06;3.97;;;3.57;;
11141;SDS011;5625;50.122;19.864;2023-04-03T02:01:34;3.67;;;3.37;;
11141;SDS011;5625;50.122;19.864;2023-04-03T02:04:02;4.07;;;3.77;;
11141;SDS011;5625;50.122;19.864;2023-04-03T02:06:32;4.07;;;3.70;;
11141;SDS011;5625;50.122;19.864;2023-04-03T02:09:00;3.90;;;3.60;;
11141;SDS011;5625;50.122;19.864;2023-04-03T02:11:28;3.57;;;3.27;;
11141;SDS011;5625;50.122;19.864;2023-04-03T02:13:56;3.57;;;3.27;;
11141;SDS011;5625;50.122;19.864;2023-04-03T02:16:26;3.87;;;3.57;;
11141;SDS011;5625;50.122;19.864;2023-04-03T02:18:55;3.70;;;3.50;;
11141;SDS011;5625;50.122;19.864;2023-04-03T02:21:23;3.67;;;3.37;;
11141;SDS011;5625;50.122;19.864;2023-04-03T02:23:52;3.47;;;3.17;;
11141;SDS011;5625;50.122;19.864;2023-04-03T02:26:20;3.77;;;3.47;;
11141;SDS011;5625;50.122;19.864;2023-04-03T02:28:48;3.83;;;3.53;;
11141;SDS011;5625;50.122;19.864;2023-04-03T02:31:16;3.77;;;3.40;;
11141;SDS011;5625;50.122;19.864;2023-04-03T02:33:45;3.40;;;3.10;;
11141;SDS011;5625;50.122;19.864;2023-04-03T02:36:13;4.03;;;3.63;;
11141;SDS011;5625;50.122;19.864;2023-04-03T02:38:41;3.87;;;3.57;;
11141;SDS011;5625;50.122;19.864;2023-04-03T02:41:11;3.47;;;3.27;;
11141;SDS011;5625;50.122;19.864;2023-04-03T02:43:39;3.30;;;3.10;;
11141;SDS011;5625;50.122;19.864;2023-04-03T02:46:07;3.37;;;3.07;;
11141;SDS011;5625;50.122;19.864;2023-04-03T02:48:35;2.90;;;2.60;;
11141;SDS011;5625;50.122;19.864;2023-04-03T02:51:04;2.87;;;2.67;;
11141;SDS011;5625;50.122;19.864;2023-04-03T02:53:32;2.97;;;2.73;;
11141;SDS011;5625;50.122;19.864;2023-04-03T02:56:00;2.63;;;2.43;;
11141;SDS011;5625;50.122;19.864;2023-04-03T02:58:30;2.90;;;2.70;;
11141;SDS011;5625;50.122;19.864;2023-04-03T03:00:58;2.70;;;2.50;;
11141;SDS011;5625;50.122;19.864;2023-04-03T03:03:26;3.17;;;2.60;;
11141;SDS011;5625;50.122;19.864;2023-04-03T03:06:00;2.90;;;2.70;;
11141;SDS011;5625;50.122;19.864;2023-04-03T03:08:29;3.93;;;3.00;;
11141;SDS011;5625;50.122;19.864;2023-04-03T03:10:57;2.70;;;2.53;;
11141;SDS011;5625;50.122;19.864;2023-04-03T03:13:26;3.40;;;3.00;;
11141;SDS011;5625;50.122;19.864;2023-04-03T03:15:55;3.20;;;2.90;;
11141;SDS011;5625;50.122;19.864;2023-04-03T03:18:23;3.40;;;3.10;;
11141;SDS011;5625;50.122;19.864;2023-04-03T03:20:52;3.53;;;3.23;;
11141;SDS011;5625;50.122;19.864;2023-04-03T03:23:23;2.80;;;2.60;;
11141;SDS011;5625;50.122;19.864;2023-04-03T03:25:54;3.07;;;2.80;;
11141;SDS011;5625;50.122;19.864;2023-04-03T03:28:25;3.10;;;2.80;;
11141;SDS011;5625;50.122;19.864;2023-04-03T03:30:53;2.93;;;2.73;;
11141;SDS011;5625;50.122;19.864;2023-04-03T03:33:22;3.33;;;2.90;;
11141;SDS011;5625;50.122;19.864;2023-04-03T03:35:51;2.90;;;2.70;;
11141;SDS011;5625;50.122;19.864;2023-04-03T03:38:19;2.70;;;2.50;;
11141;SDS011;5625;50.122;19.864;2023-04-03T03:40:48;3.00;;;2.70;;
11141;SDS011;5625;50.122;19.864;2023-04-03T03:43:17;3.17;;;2.87;;
11141;SDS011;5625;50.122;19.864;2023-04-03T03:45:46;3.33;;;2.63;;
11141;SDS011;5625;50.122;19.864;2023-04-03T03:48:17;3.13;;;2.83;;
11141;SDS011;5625;50.122;19.864;2023-04-03T03:50:48;3.60;;;2.50;;
11141;SDS011;5625;50.122;19.864;2023-04-03T03:53:16;2.50;;;2.30;;
11141;SDS011;5625;50.122;19.864;2023-04-03T03:55:45;3.00;;;2.80;;
11141;SDS011;5625;50.122;19.864;2023-04-03T03:58:13;2.90;;;2.60;;
11141;SDS011;5625;50.122;19.864;2023-04-03T04:00:41;3.83;;;3.10;;
11141;SDS011;5625;50.122;19.864;2023-04-03T04:03:09;2.90;;;2.67;;
11141;SDS011;5625;50.122;19.864;2023-04-03T04:05:37;3.37;;;3.07;;
11141;SDS011;5625;50.122;19.864;2023-04-03T04:08:07;3.43;;;3.13;;
11141;SDS011;5625;50.122;19.864;2023-04-03T04:10:35;3.50;;;3.03;;
11141;SDS011;5625;50.122;19.864;2023-04-03T04:13:04;3.37;;;3.07;;
11141;SDS011;5625;50.122;19.864;2023-04-03T04:15:32;4.90;;;3.77;;
11141;SDS011;5625;50.122;19.864;2023-04-03T04:18:01;3.90;;;3.20;;
11141;SDS011;5625;50.122;19.864;2023-04-03T04:20:29;5.90;;;4.00;;
11141;SDS011;5625;50.122;19.864;2023-04-03T04:22:58;4.60;;;3.43;;
11141;SDS011;5625;50.122;19.864;2023-04-03T04:25:27;4.40;;;3.50;;
11141;SDS011;5625;50.122;19.864;2023-04-03T04:27:55;3.17;;;2.87;;
11141;SDS011;5625;50.122;19.864;2023-04-03T04:30:23;4.83;;;3.10;;
11141;SDS011;5625;50.122;19.864;2023-04-03T04:32:52;3.33;;;3.00;;
11141;SDS011;5625;50.122;19.864;2023-04-03T04:35:20;3.67;;;3.10;;
11141;SDS011;5625;50.122;19.864;2023-04-03T04:37:48;3.47;;;3.17;;
11141;SDS011;5625;50.122;19.864;2023-04-03T04:40:17;3.40;;;3.10;;
11141;SDS011;5625;50.122;19.864;2023-04-03T04:42:46;4.57;;;3.10;;
11141;SDS011;5625;50.122;19.864;2023-04-03T04:45:15;3.33;;;3.00;;
11141;SDS011;5625;50.122;19.864;2023-04-03T04:47:44;3.40;;;3.10;;
11141;SDS011;5625;50.122;19.864;2023-04-03T04:50:12;2.70;;;2.50;;
11141;SDS011;5625;50.122;19.864;2023-04-03T04:52:41;3.40;;;3.10;;
11141;SDS011;5625;50.122;19.864;2023-04-03T04:55:09;3.43;;;3.13;;
11141;SDS011;5625;50.122;19.864;2023-04-03T04:57:37;3.90;;;3.50;;
11141;SDS011;5625;50.122;19.864;2023-04-03T05:00:08;5.33;;;4.00;;
11141;SDS011;5625;50.122;19.864;2023-04-03T05:02:37;4.20;;;3.80;;
11141;SDS011;5625;50.122;19.864;2023-04-03T05:05:05;4.53;;;4.13;;
11141;SDS011;5625;50.122;19.864;2023-04-03T05:07:34;4.73;;;4.00;;
11141;SDS011;5625;50.122;19.864;2023-04-03T05:10:02;4.33;;;3.70;;
11141;SDS011;5625;50.122;19.864;2023-04-03T05:12:31;4.47;;;3.90;;
11141;SDS011;5625;50.122;19.864;2023-04-03T05:15:00;4.40;;;3.97;;
11141;SDS011;5625;50.122;19.864;2023-04-03T05:17:29;4.00;;;3.60;;
11141;SDS011;5625;50.122;19.864;2023-04-03T05:19:57;5.13;;;4.40;;
11141;SDS011;5625;50.122;19.864;2023-04-03T05:22:28;4.83;;;4.27;;
11141;SDS011;5625;50.122;19.864;2023-04-03T05:24:56;4.00;;;3.60;;
11141;SDS011;5625;50.122;19.864;2023-04-03T05:27:24;4.47;;;3.87;;
11141;SDS011;5625;50.122;19.864;2023-04-03T05:29:54;4.33;;;3.77;;
11141;SDS011;5625;50.122;19.864;2023-04-03T05:32:23;4.10;;;3.67;;
11141;SDS011;5625;50.122;19.864;2023-04-03T05:34:54;4.53;;;3.57;;
11141;SDS011;5625;50.122;19.864;2023-04-03T05:37:25;3.70;;;3.40;;
11141;SDS011;5625;50.122;19.864;2023-04-03T05:39:53;4.17;;;3.50;;
11141;SDS011;5625;50.122;19.864;2023-04-03T05:42:21;4.00;;;3.53;;
11141;SDS011;5625;50.122;19.864;2023-04-03T05:44:50;3.77;;;3.43;;
11141;SDS011;5625;50.122;19.864;2023-04-03T05:47:18;4.30;;;3.30;;
11141;SDS011;5625;50.122;19.864;2023-04-03T05:49:49;6.47;;;3.67;;
11141;SDS011;5625;50.122;19.864;2023-04-03T05:52:20;4.10;;;3.43;;
11141;SDS011;5625;50.122;19.864;2023-04-03T05:54:50;4.83;;;3.67;;
11141;SDS011;5625;50.122;19.864;2023-04-03T05:57:18;4.03;;;3.30;;
11141;SDS011;5625;50.122;19.864;2023-04-03T05:59:47;3.50;;;2.80;;
11141;SDS011;5625;50.122;19.864;2023-04-03T06:02:16;4.43;;;3.27;;
11141;SDS011;5625;50.122;19.864;2023-04-03T06:04:45;4.93;;;3.20;;
11141;SDS011;5625;50.122;19.864;2023-04-03T06:07:14;4.30;;;3.00;;
11141;SDS011;5625;50.122;19.864;2023-04-03T06:09:45;4.47;;;3.23;;
11141;SDS011;5625;50.122;19.864;2023-04-03T06:12:13;4.43;;;3.07;;
11141;SDS011;5625;50.122;19.864;2023-04-03T06:14:41;4.60;;;3.30;;
11141;SDS011;5625;50.122;19.864;2023-04-03T06:17:09;3.70;;;2.47;;
11141;SDS011;5625;50.122;19.864;2023-04-03T06:19:38;3.20;;;2.50;;
11141;SDS011;5625;50.122;19.864;2023-04-03T06:22:07;3.77;;;2.70;;
11141;SDS011;5625;50.122;19.864;2023-04-03T06:24:38;3.93;;;2.43;;
11141;SDS011;5625;50.122;19.864;2023-04-03T06:27:08;4.47;;;2.50;;
11141;SDS011;5625;50.122;19.864;2023-04-03T06:29:38;3.83;;;2.70;;
11141;SDS011;5625;50.122;19.864;2023-04-03T06:32:06;3.50;;;2.23;;
11141;SDS011;5625;50.122;19.864;2023-04-03T06:34:34;2.97;;;2.57;;
11141;SDS011;5625;50.122;19.864;2023-04-03T06:37:03;4.53;;;2.73;;
11141;SDS011;5625;50.122;19.864;2023-04-03T06:39:31;3.23;;;2.27;;
11141;SDS011;5625;50.122;19.864;2023-04-03T06:41:59;3.63;;;2.60;;
11141;SDS011;5625;50.122;19.864;2023-04-03T06:44:29;5.13;;;3.20;;
11141;SDS011;5625;50.122;19.864;2023-04-03T06:47:00;5.50;;;3.30;;
11141;SDS011;5625;50.122;19.864;2023-04-03T06:49:28;4.93;;;3.10;;
11141;SDS011;5625;50.122;19.864;2023-04-03T06:51:58;5.87;;;3.10;;
11141;SDS011;5625;50.122;19.864;2023-04-03T06:54:28;5.93;;;3.90;;
11141;SDS011;5625;50.122;19.864;2023-04-03T06:56:56;6.63;;;4.33;;
11141;SDS011;5625;50.122;19.864;2023-04-03T06:59:24;4.97;;;4.00;;
11141;SDS011;5625;50.122;19.864;2023-04-03T07:01:53;5.27;;;3.47;;
11141;SDS011;5625;50.122;19.864;2023-04-03T07:04:22;3.83;;;3.00;;
11141;SDS011;5625;50.122;19.864;2023-04-03T07:06:50;5.23;;;3.33;;
11141;SDS011;5625;50.122;19.864;2023-04-03T07:09:20;5.40;;;3.83;;
11141;SDS011;5625;50.122;19.864;2023-04-03T07:11:49;5.03;;;3.43;;
11141;SDS011;5625;50.122;19.864;2023-04-03T07:14:16;6.33;;;3.47;;
11141;SDS011;5625;50.122;19.864;2023-04-03T07:16:44;3.90;;;2.70;;
11141;SDS011;5625;50.122;19.864;2023-04-03T07:19:14;5.77;;;3.33;;
11141;SDS011;5625;50.122;19.864;2023-04-03T07:21:43;5.30;;;3.00;;
11141;SDS011;5625;50.122;19.864;2023-04-03T07:24:14;5.43;;;3.50;;
11141;SDS011;5625;50.122;19.864;2023-04-03T07:26:42;3.77;;;2.87;;
11141;SDS011;5625;50.122;19.864;2023-04-03T07:29:11;4.57;;;3.33;;
11141;SDS011;5625;50.122;19.864;2023-04-03T07:31:40;5.40;;;2.93;;
11141;SDS011;5625;50.122;19.864;2023-04-03T07:34:11;3.23;;;2.70;;
11141;SDS011;5625;50.122;19.864;2023-04-03T07:36:40;2.80;;;2.50;;
11141;SDS011;5625;50.122;19.864;2023-04-03T07:39:09;3.07;;;2.30;;
11141;SDS011;5625;50.122;19.864;2023-04-03T07:41:38;3.37;;;2.60;;
11141;SDS011;5625;50.122;19.864;2023-04-03T07:44:06;4.27;;;2.73;;
11141;SDS011;5625;50.122;19.864;2023-04-03T07:46:35;4.53;;;2.87;;
11141;SDS011;5625;50.122;19.864;2023-04-03T07:49:04;5.33;;;2.90;;
11141;SDS011;5625;50.122;19.864;2023-04-03T07:51:32;3.13;;;2.30;;
11141;SDS011;5625;50.122;19.864;2023-04-03T07:54:02;3.50;;;2.40;;
11141;SDS011;5625;50.122;19.864;2023-04-03T07:56:31;3.10;;;2.80;;
11141;SDS011;5625;50.122;19.864;2023-04-03T07:58:59;3.00;;;2.40;;
11141;SDS011;5625;50.122;19.864;2023-04-03T08:01:27;3.07;;;2.77;;
11141;SDS011;5625;50.122;19.864;2023-04-03T08:03:58;3.53;;;2.67;;
11141;SDS011;5625;50.122;19.864;2023-04-03T08:06:27;4.17;;;2.70;;
11141;SDS011;5625;50.122;19.864;2023-04-03T08:09:12;2.40;;;2.17;;
11141;SDS011;5625;50.122;19.864;2023-04-03T08:11:41;6.20;;;2.50;;
11141;SDS011;5625;50.122;19.864;2023-04-03T08:14:10;5.10;;;2.53;;
11141;SDS011;5625;50.122;19.864;2023-04-03T08:16:44;4.00;;;2.53;;
11141;SDS011;5625;50.122;19.864;2023-04-03T08:19:13;4.87;;;3.10;;
11141;SDS011;5625;50.122;19.864;2023-04-03T08:21:51;2.97;;;2.50;;
11141;SDS011;5625;50.122;19.864;2023-04-03T08:24:21;3.03;;;2.20;;
11141;SDS011;5625;50.122;19.864;2023-04-03T08:26:49;3.13;;;2.03;;
11141;SDS011;5625;50.122;19.864;2023-04-03T08:29:17;2.73;;;2.23;;
11141;SDS011;5625;50.122;19.864;2023-04-03T08:31:47;2.93;;;2.20;;
11141;SDS011;5625;50.122;19.864;2023-04-03T08:34:16;3.10;;;2.53;;
11141;SDS011;5625;50.122;19.864;2023-04-03T08:36:44;4.57;;;2.73;;
11141;SDS011;5625;50.122;19.864;2023-04-03T08:39:15;3.67;;;2.77;;
11141;SDS011;5625;50.122;19.864;2023-04-03T08:41:45;2.60;;;2.20;;
11141;SDS011;5625;50.122;19.864;2023-04-03T08:44:15;3.23;;;2.57;;
11141;SDS011;5625;50.122;19.864;2023-04-03T08:50:30;4.53;;;2.60;;
11141;SDS011;5625;50.122;19.864;2023-04-03T08:53:03;3.57;;;2.33;;
11141;SDS011;5625;50.122;19.864;2023-04-03T08:55:34;5.17;;;2.53;;
11141;SDS011;5625;50.122;19.864;2023-04-03T08:58:10;2.90;;;2.40;;
11141;SDS011;5625;50.122;19.864;2023-04-03T09:00:43;3.03;;;2.50;;
11141;SDS011;5625;50.122;19.864;2023-04-03T09:03:14;4.53;;;2.80;;
11141;SDS011;5625;50.122;19.864;2023-04-03T09:05:46;3.27;;;2.30;;
11141;SDS011;5625;50.122;19.864;2023-04-03T09:08:24;4.73;;;2.60;;
11141;SDS011;5625;50.122;19.864;2023-04-03T09:10:58;4.90;;;2.53;;
11141;SDS011;5625;50.122;19.864;2023-04-03T09:13:39;4.27;;;3.40;;
11141;SDS011;5625;50.122;19.864;2023-04-03T09:16:19;6.07;;;2.70;;
11141;SDS011;5625;50.122;19.864;2023-04-03T09:18:57;3.53;;;2.50;;
11141;SDS011;5625;50.122;19.864;2023-04-03T09:21:36;4.73;;;2.43;;
11141;SDS011;5625;50.122;19.864;2023-04-03T09:24:09;3.40;;;2.60;;
11141;SDS011;5625;50.122;19.864;2023-04-03T09:26:41;4.40;;;2.80;;
11141;SDS011;5625;50.122;19.864;2023-04-03T09:29:15;3.80;;;2.80;;
11141;SDS011;5625;50.122;19.864;2023-04-03T09:31:48;4.50;;;2.80;;
11141;SDS011;5625;50.122;19.864;2023-04-03T09:34:18;3.53;;;2.90;;
11141;SDS011;5625;50.122;19.864;2023-04-03T09:36:50;4.30;;;2.73;;
11141;SDS011;5625;50.122;19.864;2023-04-03T09:39:21;3.67;;;2.83;;
11141;SDS011;5625;50.122;19.864;2023-04-03T09:41:58;3.83;;;2.47;;
11141;SDS011;5625;50.122;19.864;2023-04-03T09:44:30;3.90;;;2.63;;
11141;SDS011;5625;50.122;19.864;2023-04-03T09:46:59;4.20;;;2.70;;
11141;SDS011;5625;50.122;19.864;2023-04-03T09:49:44;4.27;;;2.40;;
11141;SDS011;5625;50.122;19.864;2023-04-03T09:52:19;6.43;;;2.93;;
11141;SDS011;5625;50.122;19.864;2023-04-03T09:54:50;4.13;;;3.00;;
11141;SDS011;5625;50.122;19.864;2023-04-03T09:57:19;4.27;;;2.77;;
11141;SDS011;5625;50.122;19.864;2023-04-03T09:59:56;3.20;;;2.13;;
11141;SDS011;5625;50.122;19.864;2023-04-03T10:02:31;3.03;;;2.43;;
11141;SDS011;5625;50.122;19.864;2023-04-03T10:05:03;5.33;;;2.77;;
11141;SDS011;5625;50.122;19.864;2023-04-03T10:07:51;3.57;;;2.90;;
11141;SDS011;5625;50.122;19.864;2023-04-03T10:10:28;3.93;;;2.47;;
11141;SDS011;5625;50.122;19.864;2023-04-03T10:13:03;3.10;;;2.50;;
11141;SDS011;5625;50.122;19.864;2023-04-03T10:15:38;3.73;;;2.60;;
11141;SDS011;5625;50.122;19.864;2023-04-03T10:18:15;5.33;;;2.87;;
11141;SDS011;5625;50.122;19.864;2023-04-03T10:20:57;3.27;;;2.23;;
11141;SDS011;5625;50.122;19.864;2023-04-03T10:23:38;6.23;;;2.80;;
11141;SDS011;5625;50.122;19.864;2023-04-03T10:26:12;4.30;;;3.10;;
11141;SDS011;5625;50.122;19.864;2023-04-03T10:28:52;6.43;;;3.10;;
11141;SDS011;5625;50.122;19.864;2023-04-03T10:31:29;3.57;;;2.90;;
11141;SDS011;5625;50.122;19.864;2023-04-03T10:34:04;3.70;;;3.30;;
11141;SDS011;5625;50.122;19.864;2023-04-03T10:36:41;6.63;;;3.17;;
11141;SDS011;5625;50.122;19.864;2023-04-03T10:39:16;5.80;;;4.00;;
11141;SDS011;5625;50.122;19.864;2023-04-03T10:41:54;4.43;;;3.57;;
11141;SDS011;5625;50.122;19.864;2023-04-03T10:44:42;7.40;;;3.63;;
11141;SDS011;5625;50.122;19.864;2023-04-03T10:47:35;5.27;;;3.10;;
11141;SDS011;5625;50.122;19.864;2023-04-03T10:50:15;5.70;;;3.10;;
11141;SDS011;5625;50.122;19.864;2023-04-03T10:52:55;3.90;;;3.20;;
11141;SDS011;5625;50.122;19.864;2023-04-03T10:55:30;3.70;;;2.93;;
11141;SDS011;5625;50.122;19.864;2023-04-03T10:58:03;4.20;;;2.93;;
11141;SDS011;5625;50.122;19.864;2023-04-03T11:00:35;6.07;;;2.97;;
11141;SDS011;5625;50.122;19.864;2023-04-03T11:03:11;4.77;;;3.10;;
11141;SDS011;5625;50.122;19.864;2023-04-03T11:05:42;3.23;;;2.80;;
11141;SDS011;5625;50.122;19.864;2023-04-03T11:08:15;7.17;;;3.10;;
11141;SDS011;5625;50.122;19.864;2023-04-03T11:10:51;5.00;;;3.20;;
11141;SDS011;5625;50.122;19.864;2023-04-03T11:13:24;6.10;;;4.50;;
11141;SDS011;5625;50.122;19.864;2023-04-03T11:15:58;5.80;;;3.50;;
11141;SDS011;5625;50.122;19.864;2023-04-03T11:18:31;5.13;;;3.33;;
11141;SDS011;5625;50.122;19.864;2023-04-03T11:21:04;4.87;;;4.07;;
11141;SDS011;5625;50.122;19.864;2023-04-03T11:23:39;4.17;;;3.67;;
11141;SDS011;5625;50.122;19.864;2023-04-03T11:26:15;5.57;;;3.30;;
11141;SDS011;5625;50.122;19.864;2023-04-03T11:28:45;4.57;;;4.00;;
11141;SDS011;5625;50.122;19.864;2023-04-03T11:31:16;4.30;;;3.63;;
11141;SDS011;5625;50.122;19.864;2023-04-03T11:33:58;4.77;;;3.50;;
11141;SDS011;5625;50.122;19.864;2023-04-03T11:36:38;4.60;;;3.13;;
11141;SDS011;5625;50.122;19.864;2023-04-03T11:39:14;5.17;;;3.20;;
11141;SDS011;5625;50.122;19.864;2023-04-03T11:41:47;3.70;;;3.00;;
11141;SDS011;5625;50.122;19.864;2023-04-03T11:44:28;3.33;;;2.90;;
11141;SDS011;5625;50.122;19.864;2023-04-03T11:47:00;4.47;;;3.00;;
11141;SDS011;5625;50.122;19.864;2023-04-03T11:55:42;5.10;;;2.60;;
11141;SDS011;5625;50.122;19.864;2023-04-03T11:58:22;4.87;;;3.30;;
11141;SDS011;5625;50.122;19.864;2023-04-03T12:00:52;2.90;;;2.53;;
11141;SDS011;5625;50.122;19.864;2023-04-03T12:06:48;2.73;;;2.43;;
11141;SDS011;5625;50.122;19.864;2023-04-03T12:12:57;2.60;;;1.93;;
11141;SDS011;5625;50.122;19.864;2023-04-03T12:24:35;3.87;;;3.03;;
11141;SDS011;5625;50.122;19.864;2023-04-03T12:27:13;3.73;;;2.70;;
11141;SDS011;5625;50.122;19.864;2023-04-03T12:30:04;5.37;;;2.90;;
11141;SDS011;5625;50.122;19.864;2023-04-03T12:32:49;3.07;;;2.60;;
11141;SDS011;5625;50.122;19.864;2023-04-03T12:35:39;3.70;;;2.60;;
11141;SDS011;5625;50.122;19.864;2023-04-03T12:38:22;4.10;;;3.30;;
11141;SDS011;5625;50.122;19.864;2023-04-03T12:41:28;3.73;;;3.00;;
11141;SDS011;5625;50.122;19.864;2023-04-03T12:44:15;5.33;;;3.30;;
11141;SDS011;5625;50.122;19.864;2023-04-03T12:46:52;5.17;;;2.83;;
11141;SDS011;5625;50.122;19.864;2023-04-03T12:49:24;5.47;;;3.40;;
11141;SDS011;5625;50.122;19.864;2023-04-03T12:52:02;8.10;;;3.93;;
11141;SDS011;5625;50.122;19.864;2023-04-03T12:54:34;8.37;;;3.10;;
11141;SDS011;5625;50.122;19.864;2023-04-03T12:57:09;6.07;;;2.90;;
11141;SDS011;5625;50.122;19.864;2023-04-03T12:59:38;4.77;;;2.93;;
11141;SDS011;5625;50.122;19.864;2023-04-03T13:02:13;2.80;;;2.50;;
11141;SDS011;5625;50.122;19.864;2023-04-03T13:04:49;4.10;;;3.20;;
11141;SDS011;5625;50.122;19.864;2023-04-03T13:07:19;3.00;;;2.70;;
11141;SDS011;5625;50.122;19.864;2023-04-03T13:09:59;4.10;;;2.80;;
11141;SDS011;5625;50.122;19.864;2023-04-03T13:12:29;3.47;;;2.40;;
11141;SDS011;5625;50.122;19.864;2023-04-03T13:14:58;4.17;;;3.40;;
11141;SDS011;5625;50.122;19.864;2023-04-03T13:17:41;7.00;;;3.37;;
11141;SDS011;5625;50.122;19.864;2023-04-03T13:20:14;6.30;;;3.40;;
11141;SDS011;5625;50.122;19.864;2023-04-03T13:22:50;5.03;;;3.10;;
11141;SDS011;5625;50.122;19.864;2023-04-03T13:25:23;6.10;;;2.67;;
11141;SDS011;5625;50.122;19.864;2023-04-03T13:27:54;5.07;;;2.80;;
11141;SDS011;5625;50.122;19.864;2023-04-03T13:30:29;3.27;;;2.30;;
11141;SDS011;5625;50.122;19.864;2023-04-03T13:33:00;3.50;;;2.60;;
11141;SDS011;5625;50.122;19.864;2023-04-03T13:35:32;5.60;;;3.50;;
11141;SDS011;5625;50.122;19.864;2023-04-03T13:38:06;3.67;;;2.90;;
11141;SDS011;5625;50.122;19.864;2023-04-03T13:40:50;4.43;;;3.03;;
11141;SDS011;5625;50.122;19.864;2023-04-03T13:43:24;5.67;;;2.67;;
11141;SDS011;5625;50.122;19.864;2023-04-03T13:46:00;4.43;;;2.77;;
11141;SDS011;5625;50.122;19.864;2023-04-03T13:48:36;3.40;;;2.70;;
11141;SDS011;5625;50.122;19.864;2023-04-03T13:51:17;6.63;;;2.77;;
11141;SDS011;5625;50.122;19.864;2023-04-03T13:53:48;7.73;;;3.40;;
11141;SDS011;5625;50.122;19.864;2023-04-03T13:56:23;4.17;;;3.20;;
11141;SDS011;5625;50.122;19.864;2023-04-03T13:58:56;7.80;;;5.20;;
11141;SDS011;5625;50.122;19.864;2023-04-03T14:01:32;6.40;;;4.17;;
11141;SDS011;5625;50.122;19.864;2023-04-03T14:04:10;5.23;;;2.97;;
11141;SDS011;5625;50.122;19.864;2023-04-03T14:06:41;3.53;;;2.63;;
11141;SDS011;5625;50.122;19.864;2023-04-03T14:09:09;3.07;;;2.77;;
11141;SDS011;5625;50.122;19.864;2023-04-03T14:11:39;5.73;;;2.80;;
11141;SDS011;5625;50.122;19.864;2023-04-03T14:14:10;6.60;;;2.80;;
11141;SDS011;5625;50.122;19.864;2023-04-03T14:16:41;4.20;;;2.87;;
11141;SDS011;5625;50.122;19.864;2023-04-03T14:19:17;3.07;;;2.43;;
11141;SDS011;5625;50.122;19.864;2023-04-03T14:21:48;2.80;;;2.60;;
11141;SDS011;5625;50.122;19.864;2023-04-03T14:24:17;4.70;;;2.50;;
11141;SDS011;5625;50.122;19.864;2023-04-03T14:26:50;3.30;;;2.73;;
11141;SDS011;5625;50.122;19.864;2023-04-03T14:29:20;3.07;;;2.60;;
11141;SDS011;5625;50.122;19.864;2023-04-03T14:31:49;4.03;;;2.50;;
11141;SDS011;5625;50.122;19.864;2023-04-03T14:34:37;3.67;;;2.27;;
11141;SDS011;5625;50.122;19.864;2023-04-03T14:37:09;3.30;;;2.70;;
11141;SDS011;5625;50.122;19.864;2023-04-03T14:39:38;3.43;;;2.53;;
11141;SDS011;5625;50.122;19.864;2023-04-03T14:42:13;5.10;;;2.63;;
11141;SDS011;5625;50.122;19.864;2023-04-03T14:44:42;6.33;;;3.07;;
11141;SDS011;5625;50.122;19.864;2023-04-03T14:47:11;3.80;;;3.03;;
11141;SDS011;5625;50.122;19.864;2023-04-03T14:49:56;3.73;;;2.80;;
11141;SDS011;5625;50.122;19.864;2023-04-03T14:52:25;5.47;;;2.63;;
11141;SDS011;5625;50.122;19.864;2023-04-03T14:54:55;3.20;;;2.50;;
11141;SDS011;5625;50.122;19.864;2023-04-03T14:57:25;3.27;;;2.80;;
11141;SDS011;5625;50.122;19.864;2023-04-03T14:59:56;2.93;;;2.60;;
11141;SDS011;5625;50.122;19.864;2023-04-03T15:02:26;5.33;;;3.30;;
11141;SDS011;5625;50.122;19.864;2023-04-03T15:05:01;3.83;;;2.83;;
11141;SDS011;5625;50.122;19.864;2023-04-03T15:07:33;3.83;;;2.47;;
11141;SDS011;5625;50.122;19.864;2023-04-03T15:10:03;4.13;;;2.80;;
11141;SDS011;5625;50.122;19.864;2023-04-03T15:12:43;3.03;;;2.60;;
11141;SDS011;5625;50.122;19.864;2023-04-03T15:15:12;3.53;;;2.60;;
11141;SDS011;5625;50.122;19.864;2023-04-03T15:17:41;4.57;;;2.93;;
11141;SDS011;5625;50.122;19.864;2023-04-03T15:20:11;3.20;;;2.40;;
11141;SDS011;5625;50.122;19.864;2023-04-03T15:22:41;4.13;;;2.50;;
11141;SDS011;5625;50.122;19.864;2023-04-03T15:25:09;4.53;;;2.90;;
11141;SDS011;5625;50.122;19.864;2023-04-03T15:27:37;4.97;;;3.80;;
11141;SDS011;5625;50.122;19.864;2023-04-03T15:30:11;5.43;;;3.90;;
11141;SDS011;5625;50.122;19.864;2023-04-03T15:32:42;4.97;;;3.27;;
11141;SDS011;5625;50.122;19.864;2023-04-03T15:35:11;3.23;;;2.90;;
11141;SDS011;5625;50.122;19.864;2023-04-03T15:37:39;3.73;;;2.80;;
11141;SDS011;5625;50.122;19.864;2023-04-03T15:40:07;3.90;;;2.80;;